sensor_id;sensor_type;location;lat;lon;timestamp;P1;durP1;ratioP1;P2;durP2;ratioP2
58240;SDS011;45058;55.772;38.224;2022-08-21T00:01:07;14.90;;;7.90;;
58240;SDS011;45058;55.772;38.224;2022-08-21T00:03:37;14.52;;;7.95;;
58240;SDS011;45058;55.772;38.224;2022-08-21T00:06:03;17.67;;;8.30;;
58240;SDS011;45058;55.772;38.224;2022-08-21T00:08:29;19.73;;;9.02;;
58240;SDS011;45058;55.772;38.224;2022-08-21T00:10:55;22.63;;;9.65;;
58240;SDS011;45058;55.772;38.224;2022-08-21T00:13:21;17.73;;;9.60;;
58240;SDS011;45058;55.772;38.224;2022-08-21T00:15:48;21.52;;;10.32;;
58240;SDS011;45058;55.772;38.224;2022-08-21T00:18:15;18.13;;;11.80;;
58240;SDS011;45058;55.772;38.224;2022-08-21T00:20:43;24.17;;;11.77;;
58240;SDS011;45058;55.772;38.224;2022-08-21T00:23:09;26.23;;;13.65;;
58240;SDS011;45058;55.772;38.224;2022-08-21T00:25:37;24.70;;;14.40;;
58240;SDS011;45058;55.772;38.224;2022-08-21T00:28:04;33.85;;;15.20;;
58240;SDS011;45058;55.772;38.224;2022-08-21T00:30:31;28.15;;;16.38;;
58240;SDS011;45058;55.772;38.224;2022-08-21T00:32:58;27.42;;;15.95;;
58240;SDS011;45058;55.772;38.224;2022-08-21T00:35:29;28.60;;;17.35;;
58240;SDS011;45058;55.772;38.224;2022-08-21T00:37:59;39.70;;;19.15;;
58240;SDS011;45058;55.772;38.224;2022-08-21T00:40:27;48.00;;;22.30;;
58240;SDS011;45058;55.772;38.224;2022-08-21T00:42:57;43.10;;;22.05;;
58240;SDS011;45058;55.772;38.224;2022-08-21T00:45:23;39.72;;;24.23;;
58240;SDS011;45058;55.772;38.224;2022-08-21T00:47:49;42.85;;;25.30;;
58240;SDS011;45058;55.772;38.224;2022-08-21T00:50:16;37.72;;;24.33;;
58240;SDS011;45058;55.772;38.224;2022-08-21T00:52:42;45.58;;;24.98;;
58240;SDS011;45058;55.772;38.224;2022-08-21T00:55:09;37.90;;;24.95;;
58240;SDS011;45058;55.772;38.224;2022-08-21T00:57:41;48.67;;;25.98;;
58240;SDS011;45058;55.772;38.224;2022-08-21T01:00:11;41.65;;;26.00;;
58240;SDS011;45058;55.772;38.224;2022-08-21T01:02:40;49.83;;;28.02;;
58240;SDS011;45058;55.772;38.224;2022-08-21T01:05:07;53.22;;;29.30;;
58240;SDS011;45058;55.772;38.224;2022-08-21T01:07:33;45.97;;;28.33;;
58240;SDS011;45058;55.772;38.224;2022-08-21T01:10:00;46.50;;;27.08;;
58240;SDS011;45058;55.772;38.224;2022-08-21T01:12:26;43.58;;;27.48;;
58240;SDS011;45058;55.772;38.224;2022-08-21T01:14:52;44.60;;;28.75;;
58240;SDS011;45058;55.772;38.224;2022-08-21T01:17:18;49.28;;;29.38;;
58240;SDS011;45058;55.772;38.224;2022-08-21T01:19:45;58.88;;;31.63;;
58240;SDS011;45058;55.772;38.224;2022-08-21T01:22:11;46.53;;;30.73;;
58240;SDS011;45058;55.772;38.224;2022-08-21T01:24:37;51.67;;;30.95;;
58240;SDS011;45058;55.772;38.224;2022-08-21T01:27:03;49.53;;;31.45;;
58240;SDS011;45058;55.772;38.224;2022-08-21T01:29:38;58.47;;;31.27;;
58240;SDS011;45058;55.772;38.224;2022-08-21T01:32:09;50.80;;;32.53;;
58240;SDS011;45058;55.772;38.224;2022-08-21T01:34:40;52.90;;;35.85;;
58240;SDS011;45058;55.772;38.224;2022-08-21T01:37:08;53.88;;;35.55;;
58240;SDS011;45058;55.772;38.224;2022-08-21T01:39:35;62.92;;;37.22;;
58240;SDS011;45058;55.772;38.224;2022-08-21T01:42:02;56.75;;;36.47;;
58240;SDS011;45058;55.772;38.224;2022-08-21T01:44:29;58.50;;;37.78;;
58240;SDS011;45058;55.772;38.224;2022-08-21T01:46:55;62.42;;;38.72;;
58240;SDS011;45058;55.772;38.224;2022-08-21T01:49:24;62.13;;;40.13;;
58240;SDS011;45058;55.772;38.224;2022-08-21T01:51:50;61.55;;;39.28;;
58240;SDS011;45058;55.772;38.224;2022-08-21T01:54:16;60.00;;;38.33;;
58240;SDS011;45058;55.772;38.224;2022-08-21T01:56:43;63.65;;;39.28;;
58240;SDS011;45058;55.772;38.224;2022-08-21T01:59:11;61.55;;;39.13;;
58240;SDS011;45058;55.772;38.224;2022-08-21T02:01:37;65.68;;;37.60;;
58240;SDS011;45058;55.772;38.224;2022-08-21T02:04:05;62.17;;;39.13;;
58240;SDS011;45058;55.772;38.224;2022-08-21T02:06:32;63.60;;;39.60;;
58240;SDS011;45058;55.772;38.224;2022-08-21T02:08:59;60.58;;;39.75;;
58240;SDS011;45058;55.772;38.224;2022-08-21T02:11:24;63.35;;;40.22;;
58240;SDS011;45058;55.772;38.224;2022-08-21T02:13:51;71.75;;;42.08;;
58240;SDS011;45058;55.772;38.224;2022-08-21T02:16:17;62.38;;;40.47;;
58240;SDS011;45058;55.772;38.224;2022-08-21T02:18:43;63.13;;;40.35;;
58240;SDS011;45058;55.772;38.224;2022-08-21T02:21:09;63.72;;;41.00;;
58240;SDS011;45058;55.772;38.224;2022-08-21T02:23:35;67.25;;;40.50;;
58240;SDS011;45058;55.772;38.224;2022-08-21T02:26:02;60.88;;;42.67;;
58240;SDS011;45058;55.772;38.224;2022-08-21T02:28:31;64.18;;;41.22;;
58240;SDS011;45058;55.772;38.224;2022-08-21T02:30:57;75.32;;;44.70;;
58240;SDS011;45058;55.772;38.224;2022-08-21T02:33:24;72.35;;;45.30;;
58240;SDS011;45058;55.772;38.224;2022-08-21T02:35:51;78.47;;;45.70;;
58240;SDS011;45058;55.772;38.224;2022-08-21T02:38:19;70.88;;;46.38;;
58240;SDS011;45058;55.772;38.224;2022-08-21T02:40:49;71.10;;;44.22;;
58240;SDS011;45058;55.772;38.224;2022-08-21T02:43:16;68.80;;;45.95;;
58240;SDS011;45058;55.772;38.224;2022-08-21T02:45:43;74.68;;;45.20;;
58240;SDS011;45058;55.772;38.224;2022-08-21T02:48:12;76.07;;;44.83;;
58240;SDS011;45058;55.772;38.224;2022-08-21T02:50:41;71.07;;;44.63;;
58240;SDS011;45058;55.772;38.224;2022-08-21T02:53:12;78.85;;;45.78;;
58240;SDS011;45058;55.772;38.224;2022-08-21T02:55:42;75.70;;;45.05;;
58240;SDS011;45058;55.772;38.224;2022-08-21T02:58:10;74.57;;;45.70;;
58240;SDS011;45058;55.772;38.224;2022-08-21T03:00:38;72.20;;;47.67;;
58240;SDS011;45058;55.772;38.224;2022-08-21T03:03:04;71.55;;;47.50;;
58240;SDS011;45058;55.772;38.224;2022-08-21T03:05:31;84.20;;;47.33;;
58240;SDS011;45058;55.772;38.224;2022-08-21T03:07:59;83.28;;;49.63;;
58240;SDS011;45058;55.772;38.224;2022-08-21T03:10:26;76.97;;;50.88;;
58240;SDS011;45058;55.772;38.224;2022-08-21T03:12:53;77.72;;;48.72;;
58240;SDS011;45058;55.772;38.224;2022-08-21T03:15:20;77.40;;;48.78;;
58240;SDS011;45058;55.772;38.224;2022-08-21T03:17:49;76.15;;;49.63;;
58240;SDS011;45058;55.772;38.224;2022-08-21T03:20:17;76.75;;;47.78;;
58240;SDS011;45058;55.772;38.224;2022-08-21T03:22:45;82.57;;;50.38;;
58240;SDS011;45058;55.772;38.224;2022-08-21T03:25:11;79.63;;;49.90;;
58240;SDS011;45058;55.772;38.224;2022-08-21T03:27:37;78.30;;;50.15;;
58240;SDS011;45058;55.772;38.224;2022-08-21T03:30:05;84.28;;;50.63;;
58240;SDS011;45058;55.772;38.224;2022-08-21T03:32:32;79.05;;;49.58;;
58240;SDS011;45058;55.772;38.224;2022-08-21T03:34:58;80.40;;;48.53;;
58240;SDS011;45058;55.772;38.224;2022-08-21T03:37:25;81.80;;;49.92;;
58240;SDS011;45058;55.772;38.224;2022-08-21T03:39:52;76.38;;;48.88;;
58240;SDS011;45058;55.772;38.224;2022-08-21T03:42:18;82.72;;;48.72;;
58240;SDS011;45058;55.772;38.224;2022-08-21T03:44:44;73.35;;;47.90;;
58240;SDS011;45058;55.772;38.224;2022-08-21T03:47:10;76.35;;;49.47;;
58240;SDS011;45058;55.772;38.224;2022-08-21T03:49:36;81.85;;;47.80;;
58240;SDS011;45058;55.772;38.224;2022-08-21T03:52:02;79.70;;;50.03;;
58240;SDS011;45058;55.772;38.224;2022-08-21T03:54:29;81.20;;;49.83;;
58240;SDS011;45058;55.772;38.224;2022-08-21T03:56:56;77.38;;;49.40;;
58240;SDS011;45058;55.772;38.224;2022-08-21T03:59:22;78.93;;;48.97;;
58240;SDS011;45058;55.772;38.224;2022-08-21T04:01:55;79.07;;;49.75;;
58240;SDS011;45058;55.772;38.224;2022-08-21T04:04:26;78.28;;;50.40;;
58240;SDS011;45058;55.772;38.224;2022-08-21T04:06:53;80.63;;;51.55;;
58240;SDS011;45058;55.772;38.224;2022-08-21T04:09:20;85.50;;;52.83;;
58240;SDS011;45058;55.772;38.224;2022-08-21T04:11:46;79.95;;;50.80;;
58240;SDS011;45058;55.772;38.224;2022-08-21T04:14:13;88.40;;;49.53;;
58240;SDS011;45058;55.772;38.224;2022-08-21T04:16:40;70.85;;;49.67;;
58240;SDS011;45058;55.772;38.224;2022-08-21T04:19:07;77.72;;;51.83;;
58240;SDS011;45058;55.772;38.224;2022-08-21T04:21:33;75.38;;;50.78;;
58240;SDS011;45058;55.772;38.224;2022-08-21T04:24:01;83.03;;;49.08;;
58240;SDS011;45058;55.772;38.224;2022-08-21T04:26:27;80.07;;;50.08;;
58240;SDS011;45058;55.772;38.224;2022-08-21T04:28:53;91.68;;;49.65;;
58240;SDS011;45058;55.772;38.224;2022-08-21T04:31:23;84.80;;;51.15;;
58240;SDS011;45058;55.772;38.224;2022-08-21T04:33:49;84.68;;;50.53;;
58240;SDS011;45058;55.772;38.224;2022-08-21T04:36:16;82.00;;;50.45;;
58240;SDS011;45058;55.772;38.224;2022-08-21T04:38:42;75.38;;;48.10;;
58240;SDS011;45058;55.772;38.224;2022-08-21T04:41:08;73.93;;;48.97;;
58240;SDS011;45058;55.772;38.224;2022-08-21T04:43:34;81.90;;;49.65;;
58240;SDS011;45058;55.772;38.224;2022-08-21T04:46:02;78.60;;;47.95;;
58240;SDS011;45058;55.772;38.224;2022-08-21T04:48:28;80.90;;;49.55;;
58240;SDS011;45058;55.772;38.224;2022-08-21T04:50:56;82.95;;;47.50;;
58240;SDS011;45058;55.772;38.224;2022-08-21T04:53:33;73.95;;;47.53;;
58240;SDS011;45058;55.772;38.224;2022-08-21T04:56:08;77.07;;;48.30;;
58240;SDS011;45058;55.772;38.224;2022-08-21T04:58:37;87.10;;;48.42;;
58240;SDS011;45058;55.772;38.224;2022-08-21T05:01:05;77.13;;;48.35;;
58240;SDS011;45058;55.772;38.224;2022-08-21T05:03:34;69.20;;;45.67;;
58240;SDS011;45058;55.772;38.224;2022-08-21T05:06:03;63.40;;;46.08;;
58240;SDS011;45058;55.772;38.224;2022-08-21T05:08:31;71.80;;;44.30;;
58240;SDS011;45058;55.772;38.224;2022-08-21T05:10:57;79.22;;;45.03;;
58240;SDS011;45058;55.772;38.224;2022-08-21T05:13:23;62.97;;;44.30;;
58240;SDS011;45058;55.772;38.224;2022-08-21T05:15:49;61.47;;;42.17;;
58240;SDS011;45058;55.772;38.224;2022-08-21T05:18:15;75.18;;;43.28;;
58240;SDS011;45058;55.772;38.224;2022-08-21T05:20:42;73.40;;;44.38;;
58240;SDS011;45058;55.772;38.224;2022-08-21T05:23:11;75.53;;;43.67;;
58240;SDS011;45058;55.772;38.224;2022-08-21T05:25:38;67.60;;;43.75;;
58240;SDS011;45058;55.772;38.224;2022-08-21T05:28:04;71.97;;;43.10;;
58240;SDS011;45058;55.772;38.224;2022-08-21T05:30:31;62.22;;;42.97;;
58240;SDS011;45058;55.772;38.224;2022-08-21T05:32:58;68.45;;;40.90;;
58240;SDS011;45058;55.772;38.224;2022-08-21T05:35:26;81.78;;;41.70;;
58240;SDS011;45058;55.772;38.224;2022-08-21T05:37:53;60.42;;;38.45;;
58240;SDS011;45058;55.772;38.224;2022-08-21T05:40:20;85.68;;;42.30;;
58240;SDS011;45058;55.772;38.224;2022-08-21T05:42:46;64.40;;;39.88;;
58240;SDS011;45058;55.772;38.224;2022-08-21T05:45:12;84.00;;;42.20;;
58240;SDS011;45058;55.772;38.224;2022-08-21T05:47:38;294.35;;;46.08;;
58240;SDS011;45058;55.772;38.224;2022-08-21T05:50:05;63.28;;;39.67;;
58240;SDS011;45058;55.772;38.224;2022-08-21T05:52:31;63.30;;;39.33;;
58240;SDS011;45058;55.772;38.224;2022-08-21T05:54:57;65.75;;;40.88;;
58240;SDS011;45058;55.772;38.224;2022-08-21T05:57:23;120.70;;;40.22;;
58240;SDS011;45058;55.772;38.224;2022-08-21T05:59:50;152.65;;;41.33;;
58240;SDS011;45058;55.772;38.224;2022-08-21T06:02:17;65.57;;;39.40;;
58240;SDS011;45058;55.772;38.224;2022-08-21T06:04:44;62.55;;;39.40;;
58240;SDS011;45058;55.772;38.224;2022-08-21T06:07:11;78.30;;;39.30;;
58240;SDS011;45058;55.772;38.224;2022-08-21T06:09:37;58.22;;;37.75;;
58240;SDS011;45058;55.772;38.224;2022-08-21T06:12:07;60.28;;;38.78;;
58240;SDS011;45058;55.772;38.224;2022-08-21T06:14:34;70.15;;;38.88;;
58240;SDS011;45058;55.772;38.224;2022-08-21T06:17:02;56.10;;;39.55;;
58240;SDS011;45058;55.772;38.224;2022-08-21T06:19:30;60.03;;;39.00;;
58240;SDS011;45058;55.772;38.224;2022-08-21T06:21:56;59.88;;;38.33;;
58240;SDS011;45058;55.772;38.224;2022-08-21T06:24:23;63.55;;;39.80;;
58240;SDS011;45058;55.772;38.224;2022-08-21T06:26:49;61.83;;;39.10;;
58240;SDS011;45058;55.772;38.224;2022-08-21T06:29:15;60.33;;;38.00;;
58240;SDS011;45058;55.772;38.224;2022-08-21T06:31:43;73.65;;;37.75;;
58240;SDS011;45058;55.772;38.224;2022-08-21T06:34:10;60.45;;;37.40;;
58240;SDS011;45058;55.772;38.224;2022-08-21T06:36:36;59.70;;;38.22;;
58240;SDS011;45058;55.772;38.224;2022-08-21T06:39:03;71.75;;;36.67;;
58240;SDS011;45058;55.772;38.224;2022-08-21T06:41:29;52.00;;;32.50;;
58240;SDS011;45058;55.772;38.224;2022-08-21T06:43:55;61.08;;;35.80;;
58240;SDS011;45058;55.772;38.224;2022-08-21T06:46:22;61.25;;;35.08;;
58240;SDS011;45058;55.772;38.224;2022-08-21T06:48:49;63.95;;;35.67;;
58240;SDS011;45058;55.772;38.224;2022-08-21T06:51:15;52.33;;;34.30;;
58240;SDS011;45058;55.772;38.224;2022-08-21T06:53:41;59.92;;;34.53;;
58240;SDS011;45058;55.772;38.224;2022-08-21T06:56:07;52.20;;;32.95;;
58240;SDS011;45058;55.772;38.224;2022-08-21T06:58:33;55.65;;;34.17;;
58240;SDS011;45058;55.772;38.224;2022-08-21T07:01:00;49.15;;;31.15;;
58240;SDS011;45058;55.772;38.224;2022-08-21T07:03:27;61.67;;;32.25;;
58240;SDS011;45058;55.772;38.224;2022-08-21T07:05:59;44.63;;;29.08;;
58240;SDS011;45058;55.772;38.224;2022-08-21T07:08:26;48.60;;;30.10;;
58240;SDS011;45058;55.772;38.224;2022-08-21T07:10:53;45.97;;;28.83;;
58240;SDS011;45058;55.772;38.224;2022-08-21T07:13:21;42.10;;;27.65;;
58240;SDS011;45058;55.772;38.224;2022-08-21T07:15:48;49.85;;;28.02;;
58240;SDS011;45058;55.772;38.224;2022-08-21T07:18:14;42.30;;;27.63;;
58240;SDS011;45058;55.772;38.224;2022-08-21T07:20:41;40.42;;;27.08;;
58240;SDS011;45058;55.772;38.224;2022-08-21T07:23:08;46.90;;;27.48;;
58240;SDS011;45058;55.772;38.224;2022-08-21T07:25:36;44.30;;;27.92;;
58240;SDS011;45058;55.772;38.224;2022-08-21T07:28:02;44.97;;;27.65;;
58240;SDS011;45058;55.772;38.224;2022-08-21T07:30:29;44.42;;;27.17;;
58240;SDS011;45058;55.772;38.224;2022-08-21T07:32:55;38.17;;;26.58;;
58240;SDS011;45058;55.772;38.224;2022-08-21T07:35:21;51.72;;;27.10;;
58240;SDS011;45058;55.772;38.224;2022-08-21T07:37:48;56.22;;;26.70;;
58240;SDS011;45058;55.772;38.224;2022-08-21T07:40:14;51.85;;;27.00;;
58240;SDS011;45058;55.772;38.224;2022-08-21T07:42:43;42.50;;;26.80;;
58240;SDS011;45058;55.772;38.224;2022-08-21T07:45:11;41.20;;;25.58;;
58240;SDS011;45058;55.772;38.224;2022-08-21T07:47:37;38.63;;;25.70;;
58240;SDS011;45058;55.772;38.224;2022-08-21T07:50:04;43.10;;;26.33;;
58240;SDS011;45058;55.772;38.224;2022-08-21T07:52:31;43.13;;;27.77;;
58240;SDS011;45058;55.772;38.224;2022-08-21T07:54:58;44.83;;;29.42;;
58240;SDS011;45058;55.772;38.224;2022-08-21T07:57:25;54.97;;;29.98;;
58240;SDS011;45058;55.772;38.224;2022-08-21T07:59:51;49.40;;;29.90;;
58240;SDS011;45058;55.772;38.224;2022-08-21T08:02:29;49.83;;;30.33;;
58240;SDS011;45058;55.772;38.224;2022-08-21T08:04:59;44.05;;;28.60;;
58240;SDS011;45058;55.772;38.224;2022-08-21T08:07:26;76.63;;;29.83;;
58240;SDS011;45058;55.772;38.224;2022-08-21T08:09:52;51.58;;;30.25;;
58240;SDS011;45058;55.772;38.224;2022-08-21T08:12:18;49.42;;;30.10;;
58240;SDS011;45058;55.772;38.224;2022-08-21T08:14:45;51.20;;;30.85;;
58240;SDS011;45058;55.772;38.224;2022-08-21T08:17:11;44.80;;;29.15;;
58240;SDS011;45058;55.772;38.224;2022-08-21T08:19:39;53.95;;;31.20;;
58240;SDS011;45058;55.772;38.224;2022-08-21T08:22:15;46.13;;;31.42;;
58240;SDS011;45058;55.772;38.224;2022-08-21T08:24:42;46.33;;;30.65;;
58240;SDS011;45058;55.772;38.224;2022-08-21T08:27:08;48.97;;;31.42;;
58240;SDS011;45058;55.772;38.224;2022-08-21T08:29:34;48.00;;;31.23;;
58240;SDS011;45058;55.772;38.224;2022-08-21T08:32:00;46.83;;;30.00;;
58240;SDS011;45058;55.772;38.224;2022-08-21T08:34:26;50.20;;;29.27;;
58240;SDS011;45058;55.772;38.224;2022-08-21T08:36:52;45.97;;;30.95;;
58240;SDS011;45058;55.772;38.224;2022-08-21T08:39:19;48.50;;;32.78;;
58240;SDS011;45058;55.772;38.224;2022-08-21T08:41:45;53.20;;;31.95;;
58240;SDS011;45058;55.772;38.224;2022-08-21T08:44:12;42.80;;;31.73;;
58240;SDS011;45058;55.772;38.224;2022-08-21T08:46:40;42.90;;;30.88;;
58240;SDS011;45058;55.772;38.224;2022-08-21T08:49:15;53.30;;;32.58;;
58240;SDS011;45058;55.772;38.224;2022-08-21T08:52:22;44.33;;;31.98;;
58240;SDS011;45058;55.772;38.224;2022-08-21T08:54:45;48.97;;;33.30;;
58240;SDS011;45058;55.772;38.224;2022-08-21T08:57:22;43.03;;;32.08;;
58240;SDS011;45058;55.772;38.224;2022-08-21T08:59:50;46.28;;;32.72;;
58240;SDS011;45058;55.772;38.224;2022-08-21T09:02:18;50.03;;;33.45;;
58240;SDS011;45058;55.772;38.224;2022-08-21T09:04:47;49.13;;;34.70;;
58240;SDS011;45058;55.772;38.224;2022-08-21T09:10:02;51.97;;;35.17;;
58240;SDS011;45058;55.772;38.224;2022-08-21T09:12:33;45.40;;;32.67;;
58240;SDS011;45058;55.772;38.224;2022-08-21T09:29:37;51.17;;;33.33;;
58240;SDS011;45058;55.772;38.224;2022-08-21T09:32:26;53.63;;;34.80;;
58240;SDS011;45058;55.772;38.224;2022-08-21T09:35:00;45.88;;;32.92;;
58240;SDS011;45058;55.772;38.224;2022-08-21T09:37:32;46.65;;;31.17;;
58240;SDS011;45058;55.772;38.224;2022-08-21T09:40:02;45.72;;;31.95;;
58240;SDS011;45058;55.772;38.224;2022-08-21T09:42:53;51.72;;;30.77;;
58240;SDS011;45058;55.772;38.224;2022-08-21T09:45:20;45.40;;;30.13;;
58240;SDS011;45058;55.772;38.224;2022-08-21T09:47:47;46.45;;;30.05;;
58240;SDS011;45058;55.772;38.224;2022-08-21T09:50:14;52.25;;;28.15;;
58240;SDS011;45058;55.772;38.224;2022-08-21T09:52:43;43.17;;;27.52;;
58240;SDS011;45058;55.772;38.224;2022-08-21T09:55:23;40.03;;;23.90;;
58240;SDS011;45058;55.772;38.224;2022-08-21T09:58:29;38.60;;;24.27;;
58240;SDS011;45058;55.772;38.224;2022-08-21T10:00:57;36.67;;;25.90;;
58240;SDS011;45058;55.772;38.224;2022-08-21T10:03:25;60.08;;;31.77;;
58240;SDS011;45058;55.772;38.224;2022-08-21T10:08:25;49.15;;;32.20;;
58240;SDS011;45058;55.772;38.224;2022-08-21T10:11:34;49.22;;;34.40;;
58240;SDS011;45058;55.772;38.224;2022-08-21T10:13:57;54.53;;;34.95;;
58240;SDS011;45058;55.772;38.224;2022-08-21T10:27:38;52.53;;;29.92;;
58240;SDS011;45058;55.772;38.224;2022-08-21T10:42:05;53.20;;;33.90;;
58240;SDS011;45058;55.772;38.224;2022-08-21T10:54:52;54.55;;;37.50;;
58240;SDS011;45058;55.772;38.224;2022-08-21T10:57:58;56.13;;;37.50;;
58240;SDS011;45058;55.772;38.224;2022-08-21T11:00:40;97.30;;;84.05;;
58240;SDS011;45058;55.772;38.224;2022-08-21T11:03:19;61.78;;;47.47;;
58240;SDS011;45058;55.772;38.224;2022-08-21T11:06:11;64.25;;;53.13;;
58240;SDS011;45058;55.772;38.224;2022-08-21T11:08:42;59.83;;;43.88;;
58240;SDS011;45058;55.772;38.224;2022-08-21T11:11:26;144.13;;;117.95;;
58240;SDS011;45058;55.772;38.224;2022-08-21T11:14:00;67.25;;;39.47;;
58240;SDS011;45058;55.772;38.224;2022-08-21T11:28:10;46.30;;;33.10;;
58240;SDS011;45058;55.772;38.224;2022-08-21T11:30:48;53.15;;;34.53;;
58240;SDS011;45058;55.772;38.224;2022-08-21T11:36:19;51.78;;;35.90;;
58240;SDS011;45058;55.772;38.224;2022-08-21T11:45:03;42.95;;;30.40;;
58240;SDS011;45058;55.772;38.224;2022-08-21T11:50:33;47.08;;;29.98;;
58240;SDS011;45058;55.772;38.224;2022-08-21T11:55:53;48.65;;;28.88;;
58240;SDS011;45058;55.772;38.224;2022-08-21T11:58:24;41.45;;;27.42;;
58240;SDS011;45058;55.772;38.224;2022-08-21T15:19:25;67.30;;;48.55;;
58240;SDS011;45058;55.772;38.224;2022-08-21T15:21:52;71.93;;;49.13;;
58240;SDS011;45058;55.772;38.224;2022-08-21T15:24:19;68.38;;;51.28;;
58240;SDS011;45058;55.772;38.224;2022-08-21T15:26:45;85.63;;;58.35;;
58240;SDS011;45058;55.772;38.224;2022-08-21T15:29:11;73.70;;;56.35;;
58240;SDS011;45058;55.772;38.224;2022-08-21T15:31:49;81.40;;;58.47;;
58240;SDS011;45058;55.772;38.224;2022-08-21T15:34:26;72.82;;;59.60;;
58240;SDS011;45058;55.772;38.224;2022-08-21T15:36:54;76.38;;;60.40;;
58240;SDS011;45058;55.772;38.224;2022-08-21T15:39:21;77.57;;;62.28;;
58240;SDS011;45058;55.772;38.224;2022-08-21T15:41:47;79.05;;;59.08;;
58240;SDS011;45058;55.772;38.224;2022-08-21T15:44:13;76.20;;;62.78;;
58240;SDS011;45058;55.772;38.224;2022-08-21T15:46:40;80.13;;;62.28;;
58240;SDS011;45058;55.772;38.224;2022-08-21T15:49:06;87.95;;;62.15;;
58240;SDS011;45058;55.772;38.224;2022-08-21T15:51:33;80.65;;;58.65;;
58240;SDS011;45058;55.772;38.224;2022-08-21T15:54:00;75.22;;;60.92;;
58240;SDS011;45058;55.772;38.224;2022-08-21T15:56:28;72.32;;;57.80;;
58240;SDS011;45058;55.772;38.224;2022-08-21T15:59:00;71.90;;;55.33;;
58240;SDS011;45058;55.772;38.224;2022-08-21T16:01:29;72.10;;;58.08;;
58240;SDS011;45058;55.772;38.224;2022-08-21T16:03:55;74.72;;;57.25;;
58240;SDS011;45058;55.772;38.224;2022-08-21T16:06:21;81.60;;;56.22;;
58240;SDS011;45058;55.772;38.224;2022-08-21T16:08:48;78.43;;;53.33;;
58240;SDS011;45058;55.772;38.224;2022-08-21T16:11:14;74.65;;;55.95;;
58240;SDS011;45058;55.772;38.224;2022-08-21T16:13:41;69.78;;;52.47;;
58240;SDS011;45058;55.772;38.224;2022-08-21T16:16:12;75.88;;;51.70;;
58240;SDS011;45058;55.772;38.224;2022-08-21T16:18:41;69.57;;;49.25;;
58240;SDS011;45058;55.772;38.224;2022-08-21T16:21:08;64.35;;;50.30;;
58240;SDS011;45058;55.772;38.224;2022-08-21T16:23:34;68.00;;;48.90;;
58240;SDS011;45058;55.772;38.224;2022-08-21T16:26:02;71.03;;;48.95;;
58240;SDS011;45058;55.772;38.224;2022-08-21T16:28:30;69.65;;;45.97;;
58240;SDS011;45058;55.772;38.224;2022-08-21T16:30:59;65.25;;;47.40;;
58240;SDS011;45058;55.772;38.224;2022-08-21T16:33:35;72.65;;;46.65;;
58240;SDS011;45058;55.772;38.224;2022-08-21T16:36:04;58.13;;;43.85;;
58240;SDS011;45058;55.772;38.224;2022-08-21T16:38:32;57.83;;;41.63;;
58240;SDS011;45058;55.772;38.224;2022-08-21T16:41:01;60.50;;;42.53;;
58240;SDS011;45058;55.772;38.224;2022-08-21T16:43:27;54.17;;;41.97;;
58240;SDS011;45058;55.772;38.224;2022-08-21T16:45:55;58.08;;;42.85;;
58240;SDS011;45058;55.772;38.224;2022-08-21T16:48:22;57.30;;;40.00;;
58240;SDS011;45058;55.772;38.224;2022-08-21T16:50:49;61.08;;;40.03;;
58240;SDS011;45058;55.772;38.224;2022-08-21T16:53:15;65.53;;;41.22;;
58240;SDS011;45058;55.772;38.224;2022-08-21T16:55:41;54.90;;;38.42;;
58240;SDS011;45058;55.772;38.224;2022-08-21T16:58:18;59.50;;;38.33;;
58240;SDS011;45058;55.772;38.224;2022-08-21T17:00:48;55.40;;;38.42;;
58240;SDS011;45058;55.772;38.224;2022-08-21T17:03:15;58.35;;;39.20;;
58240;SDS011;45058;55.772;38.224;2022-08-21T17:05:43;63.58;;;38.53;;
58240;SDS011;45058;55.772;38.224;2022-08-21T17:08:09;58.13;;;36.95;;
58240;SDS011;45058;55.772;38.224;2022-08-21T17:10:36;52.08;;;35.42;;
58240;SDS011;45058;55.772;38.224;2022-08-21T17:13:02;50.63;;;33.30;;
58240;SDS011;45058;55.772;38.224;2022-08-21T17:15:33;47.05;;;33.33;;
58240;SDS011;45058;55.772;38.224;2022-08-21T17:18:01;45.22;;;33.22;;
58240;SDS011;45058;55.772;38.224;2022-08-21T17:20:29;45.00;;;31.83;;
58240;SDS011;45058;55.772;38.224;2022-08-21T17:22:56;44.15;;;31.90;;
58240;SDS011;45058;55.772;38.224;2022-08-21T17:25:22;43.85;;;29.65;;
58240;SDS011;45058;55.772;38.224;2022-08-21T17:27:49;45.88;;;31.92;;
58240;SDS011;45058;55.772;38.224;2022-08-21T17:30:16;38.70;;;29.85;;
58240;SDS011;45058;55.772;38.224;2022-08-21T17:32:44;40.53;;;30.92;;
58240;SDS011;45058;55.772;38.224;2022-08-21T17:35:11;48.70;;;30.83;;
58240;SDS011;45058;55.772;38.224;2022-08-21T17:37:37;52.05;;;30.42;;
58240;SDS011;45058;55.772;38.224;2022-08-21T17:40:04;40.22;;;30.02;;
58240;SDS011;45058;55.772;38.224;2022-08-21T17:42:32;49.10;;;30.40;;
58240;SDS011;45058;55.772;38.224;2022-08-21T17:44:58;48.40;;;32.35;;
58240;SDS011;45058;55.772;38.224;2022-08-21T17:47:25;52.10;;;32.58;;
58240;SDS011;45058;55.772;38.224;2022-08-21T17:49:51;52.47;;;30.00;;
58240;SDS011;45058;55.772;38.224;2022-08-21T17:52:17;45.55;;;30.77;;
58240;SDS011;45058;55.772;38.224;2022-08-21T17:54:43;52.33;;;31.40;;
58240;SDS011;45058;55.772;38.224;2022-08-21T17:57:15;43.85;;;29.63;;
58240;SDS011;45058;55.772;38.224;2022-08-21T17:59:43;37.95;;;27.63;;
58240;SDS011;45058;55.772;38.224;2022-08-21T18:02:11;38.05;;;29.65;;
58240;SDS011;45058;55.772;38.224;2022-08-21T18:04:39;42.83;;;29.40;;
58240;SDS011;45058;55.772;38.224;2022-08-21T18:07:05;42.53;;;29.70;;
58240;SDS011;45058;55.772;38.224;2022-08-21T18:09:32;46.63;;;29.70;;
58240;SDS011;45058;55.772;38.224;2022-08-21T18:11:58;46.13;;;30.75;;
58240;SDS011;45058;55.772;38.224;2022-08-21T18:14:27;52.45;;;31.88;;
58240;SDS011;45058;55.772;38.224;2022-08-21T18:16:55;58.75;;;30.88;;
58240;SDS011;45058;55.772;38.224;2022-08-21T18:19:22;60.28;;;30.70;;
58240;SDS011;45058;55.772;38.224;2022-08-21T18:21:54;50.58;;;29.80;;
58240;SDS011;45058;55.772;38.224;2022-08-21T18:24:21;42.67;;;29.35;;
58240;SDS011;45058;55.772;38.224;2022-08-21T18:26:48;42.20;;;29.42;;
58240;SDS011;45058;55.772;38.224;2022-08-21T18:29:15;42.80;;;29.10;;
58240;SDS011;45058;55.772;38.224;2022-08-21T18:31:43;38.40;;;27.25;;
58240;SDS011;45058;55.772;38.224;2022-08-21T18:34:18;43.25;;;28.30;;
58240;SDS011;45058;55.772;38.224;2022-08-21T18:36:53;35.85;;;27.58;;
58240;SDS011;45058;55.772;38.224;2022-08-21T18:39:20;42.33;;;27.92;;
58240;SDS011;45058;55.772;38.224;2022-08-21T18:41:47;36.75;;;25.65;;
58240;SDS011;45058;55.772;38.224;2022-08-21T18:44:15;42.63;;;26.75;;
58240;SDS011;45058;55.772;38.224;2022-08-21T18:46:47;33.72;;;25.98;;
58240;SDS011;45058;55.772;38.224;2022-08-21T18:49:17;33.85;;;25.45;;
58240;SDS011;45058;55.772;38.224;2022-08-21T18:51:44;40.28;;;25.88;;
58240;SDS011;45058;55.772;38.224;2022-08-21T18:54:11;35.85;;;22.75;;